Time;durP1;ratioP1;P1;durP2;ratioP2;P2;SDS_P1;SDS_P2;PMS_P1;PMS_P2;Temp;Humidity;BMP_temperature;BMP_pressure;BME280_temperature;BME280_humidity;BME280_pressure;Samples;Min_cycle;Max_cycle;Signal;HPM_P1;HPM_P2
2022/05/31 00:00:35;;;;;;;14.20;9.25;;;21.40;1.00;;;;;;5018398;28;20489;-43
2022/05/31 00:03:02;;;;;;;10.55;8.38;;;21.50;1.00;;;;;;5019249;28;20033;-42
2022/05/31 00:05:28;;;;;;;10.90;8.70;;;21.40;1.00;;;;;;5014343;28;20056;-42
2022/05/31 00:07:54;;;;;;;11.32;8.65;;;21.40;1.00;;;;;;5004499;28;20030;-43
2022/05/31 00:10:20;;;;;;;11.13;8.27;;;21.40;1.00;;;;;;5017888;28;20172;-42
2022/05/31 00:12:46;;;;;;;11.15;8.32;;;21.40;1.00;;;;;;5019267;28;20032;-42
2022/05/31 00:15:13;;;;;;;10.48;8.15;;;21.40;1.00;;;;;;5011316;28;20496;-41
2022/05/31 00:17:40;;;;;;;10.50;8.45;;;21.40;1.00;;;;;;5019096;28;20093;-41
2022/05/31 00:20:07;;;;;;;13.10;8.65;;;21.30;1.00;;;;;;5017284;28;20091;-41
2022/05/31 00:22:34;;;;;;;11.90;9.00;;;21.30;1.00;;;;;;5015951;28;20018;-44
2022/05/31 00:25:01;;;;;;;18.40;9.07;;;21.40;1.00;;;;;;5018081;28;20040;-41
2022/05/31 00:27:27;;;;;;;11.52;8.07;;;21.40;1.00;;;;;;5018237;28;20447;-42
2022/05/31 00:29:53;;;;;;;11.00;9.02;;;21.30;1.00;;;;;;5012756;28;20041;-45
2022/05/31 00:32:26;;;;;;;12.35;9.70;;;21.30;1.00;;;;;;5016188;28;20026;-45
2022/05/31 00:34:53;;;;;;;11.02;9.70;;;21.30;1.00;;;;;;5009516;28;20033;-41
2022/05/31 00:37:19;;;;;;;11.70;9.30;;;21.20;1.00;;;;;;5019026;28;20530;-41
2022/05/31 00:39:46;;;;;;;11.00;9.88;;;21.20;1.00;;;;;;5018044;28;20029;-42
2022/05/31 00:42:15;;;;;;;14.20;10.25;;;21.20;1.00;;;;;;5018449;28;20034;-44
2022/05/31 00:44:41;;;;;;;10.38;9.15;;;21.20;1.00;;;;;;5008845;28;21104;-42
2022/05/31 00:47:30;;;;;;;12.15;9.38;;;21.20;1.00;;;;;;5018680;28;20057;-45
2022/05/31 00:50:10;;;;;;;13.38;10.75;;;21.20;1.00;;;;;;5017278;28;20030;-41
2022/05/31 00:52:42;;;;;;;19.02;11.63;;;21.20;1.00;;;;;;5017089;28;20045;-41
2022/05/31 00:55:19;;;;;;;17.38;11.85;;;21.20;1.00;;;;;;5018266;28;20038;-42
2022/05/31 00:58:15;;;;;;;13.82;12.07;;;21.20;1.00;;;;;;5019177;28;20021;-44
2022/05/31 01:00:41;;;;;;;16.25;11.20;;;21.20;1.00;;;;;;5012779;28;20080;-41
2022/05/31 01:03:10;;;;;;;15.20;12.57;;;21.20;1.00;;;;;;5015140;28;20464;-45
2022/05/31 01:05:36;;;;;;;16.00;11.98;;;21.00;1.00;;;;;;5003908;28;20038;-42
2022/05/31 01:08:04;;;;;;;16.00;12.25;;;21.00;1.00;;;;;;5011765;28;20030;-44
2022/05/31 01:10:30;;;;;;;17.08;13.15;;;20.90;1.00;;;;;;5003755;28;20062;-45
2022/05/31 01:12:58;;;;;;;14.95;12.90;;;21.00;1.00;;;;;;5011545;28;20064;-46
2022/05/31 01:15:23;;;;;;;16.45;13.15;;;21.00;1.00;;;;;;5013553;28;20038;-42
2022/05/31 01:17:49;;;;;;;15.15;13.20;;;20.90;1.00;;;;;;5009794;28;20133;-43
2022/05/31 01:20:19;;;;;;;17.40;13.13;;;21.00;1.00;;;;;;4997554;28;20031;-44
2022/05/31 01:22:45;;;;;;;16.58;13.40;;;21.10;1.00;;;;;;4998482;28;20022;-46
2022/05/31 01:25:23;;;;;;;14.77;13.15;;;21.00;1.00;;;;;;5014109;28;20522;-42
2022/05/31 01:28:08;;;;;;;15.40;13.10;;;21.00;1.00;;;;;;5008684;28;20026;-42
2022/05/31 01:30:59;;;;;;;19.30;15.27;;;21.00;1.00;;;;;;4995503;28;20037;-43
2022/05/31 01:33:33;;;;;;;20.40;15.20;;;20.90;1.00;;;;;;5013408;28;20033;-46
2022/05/31 01:36:06;;;;;;;17.17;15.27;;;20.80;1.00;;;;;;5012519;28;20022;-42
2022/05/31 01:38:39;;;;;;;19.75;15.65;;;20.80;1.00;;;;;;5012974;28;20030;-43
2022/05/31 01:41:21;;;;;;;16.98;15.20;;;20.90;1.00;;;;;;5013004;28;20411;-43
2022/05/31 01:43:51;;;;;;;18.08;15.50;;;20.70;1.00;;;;;;5013878;28;20061;-42
2022/05/31 01:46:25;;;;;;;21.35;16.60;;;20.90;1.00;;;;;;5000520;28;20046;-42
2022/05/31 01:48:52;;;;;;;18.42;15.63;;;21.00;1.00;;;;;;5012839;28;20029;-44
2022/05/31 01:51:19;;;;;;;17.15;15.10;;;21.00;1.00;;;;;;5012805;28;20034;-42
2022/05/31 01:53:45;;;;;;;17.00;15.20;;;21.00;1.00;;;;;;5014585;28;20505;-42
2022/05/31 01:56:11;;;;;;;19.08;16.17;;;20.90;1.00;;;;;;5011552;28;20069;-44
2022/05/31 01:58:40;;;;;;;19.60;15.68;;;20.90;1.00;;;;;;5011321;28;20049;-43
2022/05/31 02:01:08;;;;;;;16.52;13.88;;;20.90;1.00;;;;;;5013499;28;20030;-43
2022/05/31 02:03:34;;;;;;;18.23;15.02;;;21.00;1.00;;;;;;5006981;28;20488;-44
2022/05/31 02:05:59;;;;;;;19.15;15.13;;;20.90;1.00;;;;;;5012183;28;20061;-42
2022/05/31 02:08:29;;;;;;;19.17;16.33;;;21.00;1.00;;;;;;5012972;28;20060;-42
2022/05/31 02:10:56;;;;;;;19.27;16.80;;;21.00;1.00;;;;;;5013942;28;20033;-42
2022/05/31 02:13:25;;;;;;;19.05;16.60;;;20.90;1.00;;;;;;5012974;28;20022;-43
2022/05/31 02:15:51;;;;;;;19.20;17.15;;;20.90;1.00;;;;;;5013413;28;20029;-42
2022/05/31 02:18:17;;;;;;;18.80;16.13;;;21.00;1.00;;;;;;5013775;28;20048;-42
2022/05/31 02:20:42;;;;;;;18.80;16.90;;;20.90;1.00;;;;;;5013393;28;20030;-41
2022/05/31 02:23:08;;;;;;;17.67;15.35;;;20.90;1.00;;;;;;5013719;28;20037;-42
2022/05/31 02:25:34;;;;;;;18.05;15.82;;;20.90;1.00;;;;;;5008114;28;20030;-42
2022/05/31 02:27:59;;;;;;;18.02;15.40;;;20.90;1.00;;;;;;5007618;28;20068;-45
2022/05/31 02:30:25;;;;;;;18.02;15.73;;;21.00;1.00;;;;;;5013015;28;20044;-41
2022/05/31 02:32:51;;;;;;;18.65;15.35;;;20.90;1.00;;;;;;5012750;28;20226;-44
2022/05/31 02:35:17;;;;;;;18.65;16.67;;;21.00;1.00;;;;;;5012700;28;20035;-42
2022/05/31 02:37:43;;;;;;;17.42;15.65;;;20.90;1.00;;;;;;5014285;28;20542;-43
2022/05/31 02:40:10;;;;;;;18.73;16.67;;;21.00;1.00;;;;;;5012865;28;20095;-41
2022/05/31 02:42:39;;;;;;;18.73;16.73;;;20.80;1.00;;;;;;5013930;28;20025;-41
2022/05/31 02:45:07;;;;;;;21.58;18.00;;;20.90;1.00;;;;;;5008348;28;20511;-43
2022/05/31 02:47:33;;;;;;;18.05;16.17;;;20.70;1.00;;;;;;4998807;28;20395;-43
2022/05/31 02:49:58;;;;;;;19.35;17.17;;;20.70;1.00;;;;;;5012403;28;20030;-44
2022/05/31 02:52:34;;;;;;;17.48;15.65;;;20.70;1.00;;;;;;5013414;28;20033;-42
2022/05/31 02:54:59;;;;;;;18.30;16.05;;;20.80;1.00;;;;;;5009432;28;20419;-44
2022/05/31 02:57:26;;;;;;;19.85;16.00;;;20.70;1.00;;;;;;5013725;28;20025;-44
2022/05/31 02:59:51;;;;;;;18.50;16.60;;;20.70;1.00;;;;;;5013448;28;20030;-42
2022/05/31 03:02:17;;;;;;;17.98;15.40;;;20.70;1.00;;;;;;5010934;28;20084;-45
2022/05/31 03:04:42;;;;;;;17.98;15.77;;;20.70;1.00;;;;;;5012658;28;20037;-43
2022/05/31 03:07:11;;;;;;;17.02;14.38;;;20.70;1.00;;;;;;5012240;28;20053;-43
2022/05/31 03:09:36;;;;;;;17.27;14.60;;;20.70;1.00;;;;;;5011289;28;20029;-44
2022/05/31 03:12:02;;;;;;;19.40;15.63;;;20.80;1.00;;;;;;5008063;28;20125;-45
2022/05/31 03:14:42;;;;;;;22.70;18.10;;;20.70;1.00;;;;;;5012471;28;20022;-44
2022/05/31 03:17:17;;;;;;;23.20;17.80;;;20.60;1.00;;;;;;5006333;28;20402;-42
2022/05/31 03:20:09;;;;;;;23.02;18.58;;;20.70;1.00;;;;;;5013237;28;20573;-44
2022/05/31 03:22:43;;;;;;;19.17;15.73;;;20.70;1.00;;;;;;5009030;28;20029;-42
2022/05/31 03:25:21;;;;;;;18.90;16.27;;;20.70;1.00;;;;;;5011679;28;20018;-44
2022/05/31 03:27:49;;;;;;;16.80;15.00;;;20.70;1.00;;;;;;5010330;28;20022;-42
2022/05/31 03:30:15;;;;;;;17.88;15.93;;;20.70;1.00;;;;;;4992767;28;20431;-45
2022/05/31 03:32:41;;;;;;;19.52;16.25;;;20.70;1.00;;;;;;5005046;28;20058;-43
2022/05/31 03:35:08;;;;;;;19.38;17.33;;;20.70;1.00;;;;;;5011715;28;20109;-44
2022/05/31 03:37:33;;;;;;;19.77;16.75;;;20.70;1.00;;;;;;5011837;28;20480;-47
2022/05/31 03:39:59;;;;;;;21.65;16.77;;;20.80;1.00;;;;;;5013106;28;20106;-45
2022/05/31 03:42:25;;;;;;;19.05;15.35;;;20.80;1.00;;;;;;5002717;28;20034;-44
2022/05/31 03:44:54;;;;;;;19.73;15.75;;;20.60;1.00;;;;;;5002971;28;20037;-45
2022/05/31 03:47:20;;;;;;;19.67;16.50;;;20.60;1.00;;;;;;5004149;28;20061;-42
2022/05/31 03:49:45;;;;;;;21.48;17.38;;;20.70;1.00;;;;;;5035332;28;20057;-42
2022/05/31 03:52:11;;;;;;;16.42;14.75;;;20.70;1.00;;;;;;5010851;28;20099;-43
2022/05/31 03:54:37;;;;;;;13.68;11.52;;;20.70;1.00;;;;;;5012577;28;20468;-42
2022/05/31 03:57:11;;;;;;;14.05;12.55;;;20.70;1.00;;;;;;5009154;28;20038;-42
2022/05/31 03:59:38;;;;;;;15.23;12.38;;;20.80;1.00;;;;;;4994655;28;20030;-43
2022/05/31 04:02:05;;;;;;;16.35;13.65;;;20.70;1.00;;;;;;5009061;28;20103;-42
2022/05/31 04:04:30;;;;;;;21.05;17.30;;;20.80;1.00;;;;;;5006309;28;20109;-44
2022/05/31 04:06:56;;;;;;;17.38;15.23;;;20.70;1.00;;;;;;5005326;28;20128;-44
2022/05/31 04:09:22;;;;;;;21.70;18.02;;;20.80;1.00;;;;;;5008681;28;20026;-45
2022/05/31 04:11:47;;;;;;;20.27;18.13;;;20.80;1.00;;;;;;5009400;28;20030;-42
2022/05/31 04:14:13;;;;;;;17.58;13.50;;;20.80;1.00;;;;;;5011238;28;20026;-47
2022/05/31 04:16:38;;;;;;;14.52;12.57;;;20.80;1.00;;;;;;5011720;28;20054;-44
2022/05/31 04:19:04;;;;;;;14.20;12.57;;;20.80;1.00;;;;;;5011131;28;20171;-42
2022/05/31 04:21:30;;;;;;;15.13;13.52;;;20.90;1.00;;;;;;5006293;28;20031;-42
2022/05/31 04:23:58;;;;;;;13.82;12.40;;;20.80;1.00;;;;;;5006721;28;20379;-42
2022/05/31 04:26:40;;;;;;;14.50;12.25;;;20.80;1.00;;;;;;5011375;28;20483;-46
2022/05/31 04:29:06;;;;;;;15.85;12.93;;;20.80;1.00;;;;;;5011485;28;20025;-42
2022/05/31 04:31:31;;;;;;;14.85;12.35;;;20.90;1.00;;;;;;5009886;28;20037;-42
2022/05/31 04:33:57;;;;;;;17.63;12.65;;;20.90;1.00;;;;;;5012413;28;20030;-44
2022/05/31 04:36:23;;;;;;;14.00;12.43;;;20.80;1.00;;;;;;5011858;28;20037;-43
2022/05/31 04:38:48;;;;;;;15.38;13.48;;;20.80;1.00;;;;;;5014860;28;20065;-41
2022/05/31 04:41:20;;;;;;;14.90;12.68;;;20.80;1.00;;;;;;5010630;28;20034;-43
2022/05/31 04:43:46;;;;;;;16.65;13.30;;;20.80;1.00;;;;;;5016142;28;20037;-46
2022/05/31 04:46:18;;;;;;;14.73;12.00;;;20.80;1.00;;;;;;5012502;28;20050;-43
2022/05/31 04:48:44;;;;;;;16.40;12.65;;;20.80;1.00;;;;;;5015913;28;20034;-48
2022/05/31 04:51:11;;;;;;;15.90;11.95;;;20.80;1.00;;;;;;5014818;28;20029;-49
2022/05/31 04:53:37;;;;;;;16.92;13.15;;;20.80;1.00;;;;;;5015013;28;20418;-44
2022/05/31 04:56:05;;;;;;;17.85;13.93;;;20.90;1.00;;;;;;5014698;28;20452;-41
2022/05/31 04:58:31;;;;;;;16.80;13.00;;;20.80;1.00;;;;;;5011578;28;20072;-43
2022/05/31 05:01:01;;;;;;;16.08;12.85;;;20.80;1.00;;;;;;5014828;28;20556;-42
2022/05/31 05:03:28;;;;;;;16.55;13.10;;;20.90;1.00;;;;;;5004635;28;20085;-43
2022/05/31 05:09:16;;;;;;;15.68;12.80;;;20.90;1.00;;;;;;5004720;28;20045;-42
2022/05/31 05:11:41;;;;;;;16.38;13.07;;;20.90;1.00;;;;;;5002864;28;20026;-43
2022/05/31 05:14:07;;;;;;;17.40;14.98;;;20.90;1.00;;;;;;5015591;28;20484;-47
2022/05/31 05:16:33;;;;;;;18.70;14.30;;;21.00;1.00;;;;;;5015481;28;20152;-44
2022/05/31 05:18:58;;;;;;;19.17;15.50;;;21.00;1.00;;;;;;5015536;28;20033;-45
2022/05/31 05:21:24;;;;;;;16.88;14.48;;;21.00;1.00;;;;;;5015249;28;20125;-44
2022/05/31 05:23:50;;;;;;;19.83;15.02;;;21.00;1.00;;;;;;5014419;28;20468;-43
2022/05/31 05:26:15;;;;;;;18.20;15.48;;;21.10;1.00;;;;;;5014347;28;20085;-49
2022/05/31 05:31:27;;;;;;;17.15;14.25;;;21.00;1.00;;;;;;5015398;28;20399;-45
2022/05/31 05:33:54;;;;;;;18.67;15.45;;;21.10;1.00;;;;;;5013376;28;20025;-47
2022/05/31 05:36:42;;;;;;;18.00;15.70;;;21.20;1.00;;;;;;5015436;28;20080;-46
2022/05/31 05:39:10;;;;;;;17.70;15.35;;;21.10;1.00;;;;;;5013116;28;20068;-43
2022/05/31 05:41:35;;;;;;;21.40;16.73;;;21.20;1.00;;;;;;5010849;28;20026;-44
2022/05/31 05:44:01;;;;;;;17.50;15.27;;;21.20;1.00;;;;;;5009522;28;20025;-43
2022/05/31 05:46:28;;;;;;;20.33;16.40;;;21.20;1.00;;;;;;5011959;28;20205;-43
2022/05/31 05:52:48;;;;;;;17.48;15.60;;;21.20;1.00;;;;;;4999305;28;20057;-43
2022/05/31 05:55:14;;;;;;;21.20;17.65;;;21.20;1.00;;;;;;5008872;28;20112;-45
2022/05/31 05:57:40;;;;;;;21.23;18.73;;;21.00;1.00;;;;;;5014800;28;20480;-44
2022/05/31 06:00:07;;;;;;;22.27;18.08;;;21.10;1.00;;;;;;5012949;28;20040;-47
2022/05/31 06:02:32;;;;;;;19.65;17.25;;;21.20;1.00;;;;;;5013018;28;20499;-43
2022/05/31 06:05:07;;;;;;;21.05;18.40;;;21.10;1.00;;;;;;5013249;28;20088;-45
2022/05/31 06:07:40;;;;;;;21.08;18.33;;;21.10;1.00;;;;;;5011850;28;20041;-44
2022/05/31 06:10:19;;;;;;;20.10;16.70;;;21.20;1.00;;;;;;5013323;28;20032;-45
2022/05/31 06:12:53;;;;;;;22.27;18.13;;;21.20;1.00;;;;;;5003206;28;20034;-42
2022/05/31 06:15:22;;;;;;;19.77;17.55;;;21.40;1.00;;;;;;5011742;28;20491;-46
2022/05/31 06:17:52;;;;;;;19.77;17.27;;;21.50;1.00;;;;;;5011809;28;20088;-41
2022/05/31 06:20:19;;;;;;;21.77;18.13;;;21.50;1.00;;;;;;5009642;28;20492;-42
2022/05/31 06:22:45;;;;;;;18.98;17.10;;;21.60;1.00;;;;;;5009323;28;20423;-42
2022/05/31 06:25:14;;;;;;;20.83;18.63;;;21.50;1.00;;;;;;5012496;28;20045;-41
2022/05/31 06:27:40;;;;;;;22.08;17.88;;;21.50;1.00;;;;;;5008953;28;20037;-41
2022/05/31 06:30:06;;;;;;;23.50;19.27;;;21.50;1.00;;;;;;5012969;28;20030;-45
2022/05/31 06:32:32;;;;;;;19.85;17.75;;;21.60;1.00;;;;;;5012812;28;20439;-43
2022/05/31 06:34:58;;;;;;;23.33;18.88;;;21.50;1.00;;;;;;5012985;28;20042;-42
2022/05/31 06:37:23;;;;;;;22.60;20.15;;;21.50;1.00;;;;;;5014151;28;20026;-42
2022/05/31 06:39:49;;;;;;;22.30;19.77;;;21.60;1.00;;;;;;5006047;28;20030;-41
2022/05/31 06:42:15;;;;;;;20.60;18.35;;;21.50;1.00;;;;;;5013459;28;20121;-42
2022/05/31 06:44:43;;;;;;;21.58;19.35;;;21.60;1.00;;;;;;5012070;28;20029;-43
2022/05/31 06:47:10;;;;;;;21.67;18.80;;;21.60;1.00;;;;;;5013809;28;20490;-44
2022/05/31 06:49:37;;;;;;;21.20;18.42;;;21.70;1.00;;;;;;5011007;28;20026;-42
2022/05/31 06:57:38;;;;;;;18.67;16.08;;;21.60;1.00;;;;;;5013679;28;20048;-42
2022/05/31 07:00:06;;;;;;;21.58;17.17;;;21.70;1.00;;;;;;5011797;28;20109;-43
2022/05/31 07:02:33;;;;;;;23.17;18.42;;;21.60;1.00;;;;;;5012967;28;20511;-45
2022/05/31 07:04:59;;;;;;;20.48;17.17;;;21.50;1.00;;;;;;5012396;28;20026;-46
2022/05/31 07:07:24;;;;;;;20.00;17.25;;;21.60;1.00;;;;;;5013598;28;20538;-44
2022/05/31 07:09:50;;;;;;;19.58;17.67;;;21.60;1.00;;;;;;5010232;28;20065;-45
2022/05/31 07:12:16;;;;;;;24.77;18.75;;;21.60;1.00;;;;;;5012094;28;20022;-43
2022/05/31 07:14:43;;;;;;;20.15;17.77;;;21.60;1.00;;;;;;5012071;28;20141;-49
2022/05/31 07:17:10;;;;;;;20.00;16.50;;;21.80;1.00;;;;;;5008804;28;20046;-43
2022/05/31 07:19:35;;;;;;;18.95;17.02;;;21.70;1.00;;;;;;5011073;28;20044;-45
2022/05/31 07:22:01;;;;;;;18.10;16.25;;;21.80;1.00;;;;;;5011157;28;20112;-44
2022/05/31 07:24:29;;;;;;;17.98;16.08;;;21.80;1.00;;;;;;5011916;28;20040;-46
2022/05/31 07:26:55;;;;;;;17.63;15.90;;;21.90;1.00;;;;;;5012623;28;20057;-44
2022/05/31 07:29:21;;;;;;;17.55;15.93;;;21.90;1.00;;;;;;5001821;28;20022;-44
2022/05/31 07:31:47;;;;;;;18.45;16.60;;;21.80;1.00;;;;;;5006794;28;20035;-44
2022/05/31 07:34:16;;;;;;;19.55;17.52;;;21.80;1.00;;;;;;5003953;28;20023;-43
2022/05/31 07:36:43;;;;;;;20.13;18.17;;;22.00;1.00;;;;;;5010121;28;20018;-45
2022/05/31 07:39:11;;;;;;;18.52;16.58;;;22.00;1.00;;;;;;5011671;28;20030;-44
2022/05/31 07:41:37;;;;;;;17.00;15.40;;;22.00;1.00;;;;;;5009745;28;20040;-47
2022/05/31 07:44:03;;;;;;;17.45;15.57;;;22.10;1.00;;;;;;5012329;28;20033;-43
2022/05/31 07:46:29;;;;;;;17.75;15.95;;;22.20;1.00;;;;;;5008438;28;20041;-49
2022/05/31 07:48:56;;;;;;;17.98;15.70;;;22.20;1.00;;;;;;5009342;28;20540;-42
2022/05/31 07:51:22;;;;;;;21.92;16.65;;;22.00;1.00;;;;;;5007039;28;20041;-43
2022/05/31 07:53:48;;;;;;;19.25;17.02;;;22.10;1.00;;;;;;5003294;28;20383;-42
2022/05/31 07:56:13;;;;;;;18.45;16.65;;;22.10;1.00;;;;;;5008986;28;20038;-43
2022/05/31 07:58:42;;;;;;;19.13;17.27;;;22.10;1.00;;;;;;5003391;28;20121;-46
2022/05/31 08:01:10;;;;;;;17.45;15.75;;;22.10;1.00;;;;;;5013296;28;20384;-43
2022/05/31 08:03:37;;;;;;;18.85;17.00;;;22.10;1.00;;;;;;5010511;28;20456;-45
2022/05/31 08:06:09;;;;;;;18.20;16.42;;;22.10;1.00;;;;;;5003675;28;20073;-45
2022/05/31 08:08:36;;;;;;;18.42;16.73;;;22.00;1.00;;;;;;5008473;28;20034;-42
2022/05/31 08:11:16;;;;;;;19.05;17.13;;;22.10;1.00;;;;;;5007417;28;20034;-45
2022/05/31 08:13:42;;;;;;;19.23;16.73;;;22.20;1.00;;;;;;5009262;28;20832;-43
2022/05/31 08:16:10;;;;;;;19.45;17.30;;;22.30;1.00;;;;;;5007011;28;20128;-46
2022/05/31 08:18:37;;;;;;;19.30;17.27;;;22.40;1.00;;;;;;5009265;28;20022;-44
2022/05/31 08:21:05;;;;;;;20.30;18.40;;;22.50;1.00;;;;;;5010305;28;20026;-49
2022/05/31 08:23:32;;;;;;;18.85;16.85;;;22.50;1.00;;;;;;5004997;28;20030;-46
2022/05/31 08:25:58;;;;;;;24.13;21.63;;;22.60;1.00;;;;;;5011354;28;20026;-44
2022/05/31 08:28:24;;;;;;;20.23;18.25;;;22.60;1.00;;;;;;5012534;28;20065;-44
2022/05/31 08:30:54;;;;;;;20.38;17.98;;;22.50;1.00;;;;;;5010077;28;20084;-48
2022/05/31 08:33:20;;;;;;;19.75;17.08;;;22.70;1.00;;;;;;5009850;28;20468;-46
2022/05/31 08:35:46;;;;;;;19.73;16.63;;;22.80;1.00;;;;;;5008434;28;20045;-46
2022/05/31 08:38:15;;;;;;;18.60;16.20;;;23.00;1.00;;;;;;5008278;28;20034;-43
2022/05/31 08:40:47;;;;;;;17.88;16.13;;;23.00;1.00;;;;;;5006730;28;20455;-43
2022/05/31 08:43:18;;;;;;;19.30;16.23;;;23.00;1.00;;;;;;5008978;28;20554;-43
2022/05/31 08:45:54;;;;;;;19.67;17.55;;;23.00;1.00;;;;;;5008180;28;20158;-47
2022/05/31 08:48:28;;;;;;;18.33;16.52;;;22.90;1.00;;;;;;5007598;28;20026;-43
2022/05/31 08:56:56;;;;;;;20.23;18.13;;;22.70;1.00;;;;;;5010089;28;20819;-45
2022/05/31 08:59:53;;;;;;;19.63;17.38;;;22.80;1.00;;;;;;5005523;28;20028;-45
2022/05/31 09:02:29;;;;;;;19.55;17.58;;;22.90;1.00;;;;;;5008099;28;20033;-47
2022/05/31 09:05:06;;;;;;;18.88;16.88;;;22.90;1.00;;;;;;5009344;28;20025;-45
2022/05/31 09:07:57;;;;;;;20.25;17.35;;;23.10;1.00;;;;;;5006715;28;20033;-43
2022/05/31 09:10:40;;;;;;;18.02;15.98;;;23.20;1.00;;;;;;4995680;28;20045;-45
2022/05/31 09:13:11;;;;;;;20.60;18.38;;;23.30;1.00;;;;;;5007515;28;20038;-44
2022/05/31 09:15:59;;;;;;;21.17;16.88;;;23.50;1.00;;;;;;5008208;28;20052;-42
2022/05/31 09:18:26;;;;;;;18.25;16.33;;;23.50;1.00;;;;;;5007023;28;20033;-42
2022/05/31 09:20:53;;;;;;;18.20;16.25;;;23.40;1.00;;;;;;5006348;28;20029;-44
2022/05/31 09:23:25;;;;;;;19.15;17.15;;;23.40;1.00;;;;;;5002260;28;20030;-45
2022/05/31 09:25:59;;;;;;;19.13;17.17;;;23.40;1.00;;;;;;5008644;28;20088;-42
2022/05/31 09:28:45;;;;;;;;;;;23.20;1.00;;;;;;5014470;28;20037;-43
2022/05/31 09:31:42;;;;;;;17.92;16.02;;;23.40;1.00;;;;;;5003742;28;20298;-46
2022/05/31 09:34:22;;;;;;;17.55;15.68;;;23.40;1.00;;;;;;4993682;28;20041;-45
2022/05/31 09:37:21;;;;;;;16.85;15.15;;;23.40;1.00;;;;;;5015348;28;20116;-43
2022/05/31 09:40:04;;;;;;;19.80;16.42;;;23.60;1.00;;;;;;5014335;28;20037;-43
2022/05/31 09:42:38;;;;;;;17.07;15.10;;;23.60;1.00;;;;;;5013633;28;20057;-44
2022/05/31 09:45:09;;;;;;;18.23;16.35;;;23.60;1.00;;;;;;5013639;28;20065;-46
2022/05/31 09:47:34;;;;;;;17.65;15.38;;;23.60;1.00;;;;;;5015098;28;20125;-45
2022/05/31 09:50:01;;;;;;;18.30;16.50;;;23.60;1.00;;;;;;5014086;28;20101;-45
2022/05/31 09:52:37;;;;;;;17.67;15.88;;;23.50;1.00;;;;;;5014933;28;20041;-44
2022/05/31 09:58:12;;;;;;;17.58;15.75;;;23.70;1.00;;;;;;5008182;28;20084;-43
2022/05/31 10:01:01;;;;;;;19.48;14.55;;;23.70;1.00;;;;;;5008159;28;20026;-44
2022/05/31 10:03:44;;;;;;;16.60;14.90;;;23.80;1.00;;;;;;5013423;28;20033;-48
2022/05/31 10:06:17;;;;;;;18.15;15.50;;;23.80;1.00;;;;;;5013558;28;20034;-44
2022/05/31 10:08:49;;;;;;;17.48;15.73;;;23.80;1.00;;;;;;5003539;28;20026;-45
2022/05/31 10:11:28;;;;;;;16.67;15.02;;;23.70;1.00;;;;;;5006810;28;20104;-43
2022/05/31 10:14:09;;;;;;;17.25;15.55;;;23.90;1.00;;;;;;5002474;28;20030;-48
2022/05/31 10:16:37;;;;;;;17.25;15.50;;;23.90;1.00;;;;;;5001303;28;20053;-45
2022/05/31 10:19:05;;;;;;;17.95;16.08;;;24.10;1.00;;;;;;5006212;28;20066;-43
2022/05/31 10:21:38;;;;;;;16.30;14.77;;;24.40;1.00;;;;;;5001729;28;20389;-46
2022/05/31 10:24:26;;;;;;;18.83;16.42;;;24.40;1.00;;;;;;5011860;28;20044;-45
2022/05/31 10:27:12;;;;;;;17.17;15.18;;;24.10;1.00;;;;;;5010649;28;20049;-47
2022/05/31 10:29:53;;;;;;;17.63;14.77;;;24.10;1.00;;;;;;5010101;28;20029;-47
2022/05/31 10:32:31;;;;;;;18.40;16.55;;;24.10;1.00;;;;;;5007973;28;20030;-45
2022/05/31 10:35:26;;;;;;;18.25;16.23;;;24.10;1.00;;;;;;5007572;28;20026;-44
2022/05/31 10:37:59;;;;;;;16.35;14.75;;;24.10;1.00;;;;;;5006697;28;20042;-44
2022/05/31 10:40:36;;;;;;;19.17;16.30;;;24.10;1.00;;;;;;5008721;28;20034;-45
2022/05/31 10:43:35;;;;;;;17.30;15.15;;;24.20;1.00;;;;;;5014098;28;20041;-45
2022/05/31 10:46:27;;;;;;;19.00;14.82;;;24.20;1.00;;;;;;5003249;28;20392;-44
2022/05/31 10:49:14;;;;;;;16.58;14.88;;;24.20;1.00;;;;;;5002567;28;20511;-45
2022/05/31 10:52:00;;;;;;;17.52;15.70;;;24.20;1.00;;;;;;5013601;28;20045;-46
2022/05/31 10:54:52;;;;;;;21.23;19.23;;;24.40;1.00;;;;;;5010402;28;20049;-44
2022/05/31 10:57:39;;;;;;;18.23;15.57;;;24.50;1.00;;;;;;4997470;28;20038;-45
2022/05/31 11:00:12;;;;;;;19.77;15.68;;;24.50;1.00;;;;;;5010722;28;20551;-45
2022/05/31 11:02:43;;;;;;;18.70;16.90;;;24.60;1.00;;;;;;5013728;28;20018;-44
2022/05/31 11:05:15;;;;;;;18.27;16.45;;;24.60;1.00;;;;;;5011249;28;20030;-45
2022/05/31 11:11:30;;;;;;;18.45;16.33;;;24.90;1.00;;;;;;5001875;28;20040;-48
2022/05/31 11:13:55;;;;;;;18.90;16.80;;;24.90;1.00;;;;;;5000988;28;20033;-45
2022/05/31 11:16:49;;;;;;;18.75;16.90;;;25.10;1.00;;;;;;5003884;28;20030;-43
2022/05/31 11:19:42;;;;;;;17.42;15.35;;;25.20;1.00;;;;;;5000846;28;20033;-45
2022/05/31 11:22:16;;;;;;;25.02;18.13;;;25.20;1.00;;;;;;5005247;28;20068;-44
2022/05/31 11:24:57;;;;;;;20.17;18.00;;;25.10;1.00;;;;;;5019517;28;20033;-42
2022/05/31 11:27:46;;;;;;;20.25;17.23;;;25.00;1.00;;;;;;5005870;28;20038;-42
2022/05/31 11:30:18;;;;;;;18.23;16.42;;;25.10;1.00;;;;;;4978161;28;20038;-43
2022/05/31 11:33:10;;;;;;;18.65;16.55;;;25.10;1.00;;;;;;5006977;28;20034;-47
2022/05/31 11:35:42;;;;;;;19.95;17.88;;;25.30;1.00;;;;;;5002652;28;20041;-46
2022/05/31 11:38:22;;;;;;;25.15;17.67;;;25.20;1.00;;;;;;5003755;28;20037;-43
2022/05/31 11:41:01;;;;;;;18.80;16.83;;;25.20;1.00;;;;;;5005932;28;20025;-42
2022/05/31 11:43:27;;;;;;;20.13;17.63;;;25.00;1.00;;;;;;5004010;28;20026;-42
2022/05/31 11:46:28;;;;;;;19.65;17.70;;;24.80;1.00;;;;;;5003944;28;20052;-42
2022/05/31 11:48:59;;;;;;;21.10;18.02;;;24.70;1.00;;;;;;5003893;28;20037;-41
2022/05/31 11:51:53;;;;;;;20.88;16.70;;;24.60;1.00;;;;;;5001806;28;20030;-43
2022/05/31 11:58:04;;;;;;;20.05;17.95;;;24.80;1.00;;;;;;5003885;28;20736;-42
2022/05/31 12:00:54;;;;;;;21.92;17.33;;;25.00;1.00;;;;;;5007180;28;20025;-45
2022/05/31 12:03:26;;;;;;;19.23;16.23;;;24.90;1.00;;;;;;5005893;28;20018;-43
2022/05/31 12:05:58;;;;;;;19.25;17.35;;;24.90;1.00;;;;;;5001318;28;20030;-42
2022/05/31 12:08:30;;;;;;;18.55;16.63;;;24.80;1.00;;;;;;5002925;28;20484;-46
2022/05/31 12:11:08;;;;;;;17.95;16.23;;;24.80;1.00;;;;;;5002659;28;20046;-43
2022/05/31 12:13:40;;;;;;;17.70;16.00;;;25.00;1.00;;;;;;5003522;28;20060;-44
2022/05/31 12:16:06;;;;;;;19.45;17.38;;;25.20;1.00;;;;;;5006192;28;20026;-44
2022/05/31 12:18:47;;;;;;;19.20;16.35;;;26.30;1.00;;;;;;5003913;28;20042;-44
2022/05/31 12:21:47;;;;;;;16.20;14.60;;;27.80;1.00;;;;;;5004280;28;20538;-42
2022/05/31 12:24:23;;;;;;;18.80;16.88;;;28.00;1.00;;;;;;5004484;28;20037;-46
2022/05/31 12:27:08;;;;;;;17.27;15.20;;;27.00;1.00;;;;;;5001703;28;20041;-42
2022/05/31 12:29:39;;;;;;;;;;;26.70;1.00;;;;;;5005114;28;20581;-42
2022/05/31 12:32:26;;;;;;;20.42;15.82;;;26.30;1.00;;;;;;5003310;28;19956;-44
2022/05/31 12:34:52;;;;;;;18.48;16.70;;;26.10;1.00;;;;;;5002375;28;20113;-47
2022/05/31 12:37:18;;;;;;;17.08;15.45;;;26.10;1.00;;;;;;5004048;28;20112;-45
2022/05/31 12:39:46;;;;;;;15.52;13.65;;;26.10;1.00;;;;;;5000675;28;20451;-42
2022/05/31 12:42:15;;;;;;;17.27;15.45;;;28.20;1.00;;;;;;5002430;28;20053;-44
2022/05/31 12:44:47;;;;;;;16.98;15.40;;;28.20;1.00;;;;;;5004862;28;20041;-43
2022/05/31 12:47:32;;;;;;;19.05;16.85;;;27.40;1.00;;;;;;5003824;28;20041;-45
2022/05/31 12:50:05;;;;;;;19.00;17.15;;;27.30;1.00;;;;;;5003077;28;20408;-42
2022/05/31 12:55:04;;;;;;;18.23;14.85;;;30.90;1.00;;;;;;5007462;28;20092;-45
2022/05/31 13:00:32;;;;;;;16.38;14.70;;;33.20;1.00;;;;;;5011757;28;20037;-44
2022/05/31 13:02:58;;;;;;;15.52;14.10;;;33.70;1.00;;;;;;5014371;28;20026;-45
2022/05/31 13:05:40;;;;;;;16.33;14.68;;;33.30;1.00;;;;;;5014697;28;20045;-45
2022/05/31 13:08:19;;;;;;;15.35;13.30;;;31.90;1.00;;;;;;5008863;28;20026;-46
2022/05/31 13:19:45;;;;;;;17.20;15.50;;;28.20;1.00;;;;;;4950281;28;20094;-45
2022/05/31 13:22:13;;;;;;;19.42;16.30;;;27.60;1.00;;;;;;4988778;28;20070;-42
2022/05/31 13:24:58;;;;;;;18.02;16.35;;;27.30;1.00;;;;;;5014127;28;20036;-45
2022/05/31 13:27:26;;;;;;;;;;;27.20;1.00;;;;;;5012385;28;20062;-42
2022/05/31 13:30:19;;;;;;;16.73;14.32;;;26.90;1.00;;;;;;5009539;28;19956;-44
2022/05/31 13:32:46;;;;;;;17.02;14.88;;;26.90;1.00;;;;;;5015111;28;20113;-43
2022/05/31 13:35:24;;;;;;;18.42;16.63;;;27.00;1.00;;;;;;5013236;28;20100;-44
2022/05/31 13:37:53;;;;;;;19.67;17.77;;;26.90;1.00;;;;;;5008284;28;20108;-44
2022/05/31 13:40:31;;;;;;;18.20;16.48;;;26.70;1.00;;;;;;5011426;28;20507;-42
2022/05/31 13:42:57;;;;;;;17.27;15.43;;;26.80;1.00;;;;;;5014881;28;20014;-43
2022/05/31 13:45:26;;;;;;;17.52;15.57;;;26.90;1.00;;;;;;5014070;28;20026;-43